Shoshone, California Weather observations

Data are for observation ending at time listed.
 Day   Time    Ave.   Ave.  Ave.  Vector   Max.   Stn.    Total    Solar   Ave.  
  of    of     Air    Rel.  Wind   Wind    Wind   Baro.  Precip.   Rad.    Soil  
Year   Day     Temp.  Hum.  Speed  Dir.    Gust   Pres.                    Temp. 
2014   (PST)    F      %     mph   deg.    mph     mb.     in.     W/m2     F   
------------------------------------------------------------------------------
 263    0:00   71.9    30    0.3   321      1.7    963     0.00       0    -7.6
 263    1:00   70.0    31    0.1   339      1.2    964     0.00       0    -5.0
 263    2:00   68.1    34    0.5    14      3.2    964     0.00       0    -0.2
 263    3:00   64.5    39    0.7   299      3.6    964     0.00       0     1.7
 263    4:00   64.5    38    0.4   310      2.1    964     0.00       0     4.4
 263    5:00   64.2    39    0.7    51      3.2    964     0.00       0     7.3
 263    6:00   62.5    43    0.9    14      4.3    965     0.00       9     5.2
 263    7:00   66.1    40    0.6    24      2.6    966     0.00      86     9.6
 263    8:00   74.4    30    0.7   312      4.7    966     0.00     281    17.8
 263    9:00   79.4    24    2.8   286      5.1    966     0.00     258    23.5
 263   10:00   80.6    32    0.6   274      3.4    966     0.00     168    26.1
 263   11:00   82.2    34    1.7    41      5.8    966     0.00     302    24.5
 263   12:00   85.8    30    3.4     9      7.5    966     0.00     620    25.6
 263   13:00   89.0    25    3.1    11      8.6    965     0.00     525    29.9
 263   14:00   88.2    26    3.0   353      8.3    964     0.00     142    29.3
 263   15:00   84.8    34    4.9   301     13.9    964     0.00      69    24.2
 263   16:00   79.6    49    4.4   281     10.2    963     0.00      59    20.1
 263   17:00   82.8    39    5.4   294     13.4    963     0.00     125    18.1
 263   18:00   82.5    37    6.5   293     13.1    963     0.00      26    17.6
 263   19:00   80.4    42    6.3   319     15.6    963     0.00       0    16.5
 263   20:00   78.5    48    7.0   321     17.9    964     0.00       0    15.5
 263   21:00   76.6    52    4.0   307     15.4    964     0.00       0    16.5
 263   22:00   74.4    55    1.4   282      4.5    964     0.00       0    18.4

Return to Shoshone, California graphs page.


Western Regional Climate Center,wrcc@dri.edu